sensor_id;sensor_type;location;lat;lon;timestamp;P1;durP1;ratioP1;P2;durP2;ratioP2
81799;SDS011;71195;52.528;5.704;2023-07-28T00:00:04;9.48;;;3.15;;
81799;SDS011;71195;52.528;5.704;2023-07-28T00:02:41;9.82;;;3.20;;
81799;SDS011;71195;52.528;5.704;2023-07-28T00:05:10;6.82;;;2.72;;
81799;SDS011;71195;52.528;5.704;2023-07-28T00:07:39;8.30;;;2.85;;
81799;SDS011;71195;52.528;5.704;2023-07-28T00:10:09;6.13;;;2.67;;
81799;SDS011;71195;52.528;5.704;2023-07-28T00:12:39;7.95;;;2.75;;
81799;SDS011;71195;52.528;5.704;2023-07-28T00:15:08;6.25;;;2.50;;
81799;SDS011;71195;52.528;5.704;2023-07-28T00:17:40;7.65;;;3.10;;
81799;SDS011;71195;52.528;5.704;2023-07-28T00:22:39;9.55;;;3.60;;
81799;SDS011;71195;52.528;5.704;2023-07-28T00:25:09;11.27;;;3.40;;
81799;SDS011;71195;52.528;5.704;2023-07-28T00:27:38;6.32;;;2.78;;
81799;SDS011;71195;52.528;5.704;2023-07-28T00:30:08;6.65;;;2.67;;
81799;SDS011;71195;52.528;5.704;2023-07-28T00:32:40;5.85;;;2.67;;
81799;SDS011;71195;52.528;5.704;2023-07-28T00:35:10;10.65;;;2.95;;
81799;SDS011;71195;52.528;5.704;2023-07-28T00:37:39;14.45;;;3.10;;
81799;SDS011;71195;52.528;5.704;2023-07-28T00:40:08;10.05;;;3.53;;
81799;SDS011;71195;52.528;5.704;2023-07-28T00:42:38;10.27;;;2.53;;
81799;SDS011;71195;52.528;5.704;2023-07-28T00:45:08;11.82;;;3.20;;
81799;SDS011;71195;52.528;5.704;2023-07-28T00:47:37;9.57;;;3.50;;
81799;SDS011;71195;52.528;5.704;2023-07-28T00:50:09;8.82;;;3.13;;
81799;SDS011;71195;52.528;5.704;2023-07-28T00:52:39;9.13;;;3.47;;
81799;SDS011;71195;52.528;5.704;2023-07-28T00:55:09;7.93;;;3.90;;
81799;SDS011;71195;52.528;5.704;2023-07-28T00:57:38;7.82;;;2.72;;
81799;SDS011;71195;52.528;5.704;2023-07-28T01:00:08;9.95;;;3.13;;
81799;SDS011;71195;52.528;5.704;2023-07-28T01:02:41;6.82;;;2.58;;
81799;SDS011;71195;52.528;5.704;2023-07-28T01:05:10;10.73;;;3.33;;
81799;SDS011;71195;52.528;5.704;2023-07-28T01:07:41;7.53;;;3.05;;
81799;SDS011;71195;52.528;5.704;2023-07-28T01:10:30;7.03;;;2.28;;
81799;SDS011;71195;52.528;5.704;2023-07-28T01:13:00;13.38;;;3.15;;
81799;SDS011;71195;52.528;5.704;2023-07-28T01:15:30;8.07;;;2.70;;
81799;SDS011;71195;52.528;5.704;2023-07-28T01:18:01;7.88;;;2.95;;
81799;SDS011;71195;52.528;5.704;2023-07-28T01:20:31;11.30;;;3.00;;
81799;SDS011;71195;52.528;5.704;2023-07-28T01:23:05;12.13;;;2.78;;
81799;SDS011;71195;52.528;5.704;2023-07-28T01:25:52;7.72;;;3.05;;
81799;SDS011;71195;52.528;5.704;2023-07-28T01:28:30;10.13;;;2.67;;
81799;SDS011;71195;52.528;5.704;2023-07-28T01:31:01;7.10;;;2.78;;
81799;SDS011;71195;52.528;5.704;2023-07-28T01:33:31;6.82;;;2.22;;
81799;SDS011;71195;52.528;5.704;2023-07-28T01:36:01;6.90;;;2.90;;
81799;SDS011;71195;52.528;5.704;2023-07-28T01:38:30;6.97;;;2.90;;
81799;SDS011;71195;52.528;5.704;2023-07-28T01:40:59;8.63;;;2.97;;
81799;SDS011;71195;52.528;5.704;2023-07-28T01:43:31;7.95;;;3.00;;
81799;SDS011;71195;52.528;5.704;2023-07-28T01:46:00;7.97;;;2.67;;
81799;SDS011;71195;52.528;5.704;2023-07-28T01:48:29;7.45;;;2.38;;
81799;SDS011;71195;52.528;5.704;2023-07-28T01:50:59;7.50;;;2.28;;
81799;SDS011;71195;52.528;5.704;2023-07-28T01:53:28;6.97;;;2.38;;
81799;SDS011;71195;52.528;5.704;2023-07-28T01:55:57;5.25;;;2.58;;
81799;SDS011;71195;52.528;5.704;2023-07-28T01:58:26;6.80;;;3.00;;
81799;SDS011;71195;52.528;5.704;2023-07-28T02:00:58;9.82;;;3.15;;
81799;SDS011;71195;52.528;5.704;2023-07-28T02:03:27;10.20;;;3.08;;
81799;SDS011;71195;52.528;5.704;2023-07-28T02:05:57;7.90;;;3.35;;
81799;SDS011;71195;52.528;5.704;2023-07-28T02:08:26;10.05;;;3.08;;
81799;SDS011;71195;52.528;5.704;2023-07-28T02:10:55;7.00;;;2.85;;
81799;SDS011;71195;52.528;5.704;2023-07-28T02:13:24;8.57;;;2.88;;
81799;SDS011;71195;52.528;5.704;2023-07-28T02:15:53;10.18;;;3.38;;
81799;SDS011;71195;52.528;5.704;2023-07-28T02:18:25;10.10;;;2.97;;
81799;SDS011;71195;52.528;5.704;2023-07-28T02:20:55;11.10;;;3.08;;
81799;SDS011;71195;52.528;5.704;2023-07-28T02:23:24;10.68;;;3.28;;
81799;SDS011;71195;52.528;5.704;2023-07-28T02:25:53;9.80;;;2.90;;
81799;SDS011;71195;52.528;5.704;2023-07-28T02:28:22;7.68;;;3.45;;
81799;SDS011;71195;52.528;5.704;2023-07-28T02:30:52;9.52;;;4.05;;
81799;SDS011;71195;52.528;5.704;2023-07-28T02:33:21;7.45;;;2.78;;
81799;SDS011;71195;52.528;5.704;2023-07-28T02:35:53;10.38;;;3.97;;
81799;SDS011;71195;52.528;5.704;2023-07-28T02:38:22;9.50;;;3.38;;
81799;SDS011;71195;52.528;5.704;2023-07-28T02:40:51;14.05;;;3.92;;
81799;SDS011;71195;52.528;5.704;2023-07-28T02:43:21;10.52;;;3.85;;
81799;SDS011;71195;52.528;5.704;2023-07-28T02:45:53;9.60;;;3.85;;
81799;SDS011;71195;52.528;5.704;2023-07-28T02:48:23;13.68;;;4.90;;
81799;SDS011;71195;52.528;5.704;2023-07-28T02:50:55;16.40;;;4.20;;
81799;SDS011;71195;52.528;5.704;2023-07-28T02:53:24;13.52;;;4.47;;
81799;SDS011;71195;52.528;5.704;2023-07-28T02:55:53;10.55;;;4.38;;
81799;SDS011;71195;52.528;5.704;2023-07-28T02:58:24;8.07;;;3.97;;
81799;SDS011;71195;52.528;5.704;2023-07-28T03:00:53;13.27;;;4.03;;
81799;SDS011;71195;52.528;5.704;2023-07-28T03:03:30;8.15;;;4.10;;
81799;SDS011;71195;52.528;5.704;2023-07-28T03:06:02;14.55;;;3.92;;
81799;SDS011;71195;52.528;5.704;2023-07-28T03:08:33;12.40;;;4.68;;
81799;SDS011;71195;52.528;5.704;2023-07-28T03:11:21;11.52;;;3.72;;
81799;SDS011;71195;52.528;5.704;2023-07-28T03:13:50;11.48;;;3.80;;
81799;SDS011;71195;52.528;5.704;2023-07-28T03:16:19;14.65;;;3.60;;
81799;SDS011;71195;52.528;5.704;2023-07-28T03:18:49;11.30;;;4.07;;
81799;SDS011;71195;52.528;5.704;2023-07-28T03:21:21;10.93;;;4.13;;
81799;SDS011;71195;52.528;5.704;2023-07-28T03:23:50;9.55;;;3.50;;
81799;SDS011;71195;52.528;5.704;2023-07-28T03:26:19;15.90;;;4.47;;
81799;SDS011;71195;52.528;5.704;2023-07-28T03:28:48;12.85;;;4.30;;
81799;SDS011;71195;52.528;5.704;2023-07-28T03:31:18;13.52;;;3.78;;
81799;SDS011;71195;52.528;5.704;2023-07-28T03:33:47;11.23;;;3.72;;
81799;SDS011;71195;52.528;5.704;2023-07-28T03:36:16;13.65;;;4.10;;
81799;SDS011;71195;52.528;5.704;2023-07-28T03:38:48;17.23;;;4.28;;
81799;SDS011;71195;52.528;5.704;2023-07-28T03:41:17;9.93;;;4.30;;
81799;SDS011;71195;52.528;5.704;2023-07-28T03:43:46;10.80;;;3.47;;
81799;SDS011;71195;52.528;5.704;2023-07-28T03:46:16;11.05;;;4.03;;
81799;SDS011;71195;52.528;5.704;2023-07-28T03:48:45;9.43;;;3.83;;
81799;SDS011;71195;52.528;5.704;2023-07-28T03:51:14;11.93;;;4.30;;
81799;SDS011;71195;52.528;5.704;2023-07-28T03:53:43;9.35;;;3.53;;
81799;SDS011;71195;52.528;5.704;2023-07-28T03:56:15;9.63;;;3.50;;
81799;SDS011;71195;52.528;5.704;2023-07-28T03:58:45;10.45;;;4.68;;
81799;SDS011;71195;52.528;5.704;2023-07-28T04:01:14;12.35;;;3.67;;
81799;SDS011;71195;52.528;5.704;2023-07-28T04:03:44;10.65;;;3.45;;
81799;SDS011;71195;52.528;5.704;2023-07-28T04:06:13;10.98;;;3.63;;
81799;SDS011;71195;52.528;5.704;2023-07-28T04:08:42;10.52;;;3.67;;
81799;SDS011;71195;52.528;5.704;2023-07-28T04:11:11;7.32;;;3.72;;
81799;SDS011;71195;52.528;5.704;2023-07-28T04:13:43;11.02;;;4.18;;
81799;SDS011;71195;52.528;5.704;2023-07-28T04:16:12;11.68;;;4.70;;
81799;SDS011;71195;52.528;5.704;2023-07-28T04:18:41;12.13;;;3.85;;
81799;SDS011;71195;52.528;5.704;2023-07-28T04:21:11;9.65;;;4.00;;
81799;SDS011;71195;52.528;5.704;2023-07-28T04:23:40;11.32;;;3.65;;
81799;SDS011;71195;52.528;5.704;2023-07-28T04:26:09;12.13;;;4.18;;
81799;SDS011;71195;52.528;5.704;2023-07-28T04:28:42;13.10;;;5.03;;
81799;SDS011;71195;52.528;5.704;2023-07-28T04:31:11;12.60;;;4.22;;
81799;SDS011;71195;52.528;5.704;2023-07-28T04:33:57;12.32;;;4.45;;
81799;SDS011;71195;52.528;5.704;2023-07-28T04:36:38;13.52;;;3.60;;
81799;SDS011;71195;52.528;5.704;2023-07-28T04:39:08;10.05;;;4.65;;
81799;SDS011;71195;52.528;5.704;2023-07-28T04:41:37;9.45;;;4.18;;
81799;SDS011;71195;52.528;5.704;2023-07-28T04:44:09;14.50;;;5.20;;
81799;SDS011;71195;52.528;5.704;2023-07-28T04:46:41;8.55;;;4.00;;
81799;SDS011;71195;52.528;5.704;2023-07-28T04:49:13;9.65;;;3.75;;
81799;SDS011;71195;52.528;5.704;2023-07-28T04:52:01;11.13;;;4.30;;
81799;SDS011;71195;52.528;5.704;2023-07-28T04:54:36;11.00;;;4.15;;
81799;SDS011;71195;52.528;5.704;2023-07-28T04:57:05;9.38;;;4.10;;
81799;SDS011;71195;52.528;5.704;2023-07-28T04:59:40;14.02;;;4.45;;
81799;SDS011;71195;52.528;5.704;2023-07-28T05:02:09;9.18;;;4.25;;
81799;SDS011;71195;52.528;5.704;2023-07-28T05:04:38;12.68;;;4.35;;
81799;SDS011;71195;52.528;5.704;2023-07-28T05:07:07;9.75;;;3.85;;
81799;SDS011;71195;52.528;5.704;2023-07-28T05:09:37;13.07;;;4.28;;
81799;SDS011;71195;52.528;5.704;2023-07-28T05:12:06;14.25;;;4.75;;
81799;SDS011;71195;52.528;5.704;2023-07-28T05:14:45;12.38;;;5.13;;
81799;SDS011;71195;52.528;5.704;2023-07-28T05:17:18;10.75;;;4.15;;
81799;SDS011;71195;52.528;5.704;2023-07-28T05:20:03;11.18;;;4.18;;
81799;SDS011;71195;52.528;5.704;2023-07-28T05:22:39;12.90;;;3.85;;
81799;SDS011;71195;52.528;5.704;2023-07-28T05:25:08;12.95;;;4.70;;
81799;SDS011;71195;52.528;5.704;2023-07-28T05:27:41;10.85;;;4.05;;
81799;SDS011;71195;52.528;5.704;2023-07-28T05:30:13;14.82;;;4.78;;
81799;SDS011;71195;52.528;5.704;2023-07-28T05:32:42;11.75;;;4.53;;
81799;SDS011;71195;52.528;5.704;2023-07-28T05:35:22;8.20;;;3.97;;
81799;SDS011;71195;52.528;5.704;2023-07-28T05:37:52;9.70;;;3.95;;
81799;SDS011;71195;52.528;5.704;2023-07-28T05:40:21;9.70;;;4.22;;
81799;SDS011;71195;52.528;5.704;2023-07-28T05:42:50;9.95;;;4.40;;
81799;SDS011;71195;52.528;5.704;2023-07-28T05:45:22;11.45;;;3.88;;
81799;SDS011;71195;52.528;5.704;2023-07-28T05:47:51;8.15;;;3.72;;
81799;SDS011;71195;52.528;5.704;2023-07-28T05:50:21;7.85;;;3.47;;
81799;SDS011;71195;52.528;5.704;2023-07-28T05:52:50;11.95;;;3.92;;
81799;SDS011;71195;52.528;5.704;2023-07-28T05:55:19;11.57;;;4.45;;
81799;SDS011;71195;52.528;5.704;2023-07-28T05:57:48;8.30;;;4.05;;
81799;SDS011;71195;52.528;5.704;2023-07-28T06:00:18;10.18;;;3.88;;
81799;SDS011;71195;52.528;5.704;2023-07-28T06:02:50;10.50;;;3.55;;
81799;SDS011;71195;52.528;5.704;2023-07-28T06:05:39;8.73;;;3.70;;
81799;SDS011;71195;52.528;5.704;2023-07-28T06:08:08;9.60;;;4.13;;
81799;SDS011;71195;52.528;5.704;2023-07-28T06:10:38;9.48;;;2.92;;
81799;SDS011;71195;52.528;5.704;2023-07-28T06:13:07;12.55;;;4.35;;
81799;SDS011;71195;52.528;5.704;2023-07-28T06:15:38;8.20;;;2.78;;
81799;SDS011;71195;52.528;5.704;2023-07-28T06:18:10;9.75;;;3.67;;
81799;SDS011;71195;52.528;5.704;2023-07-28T06:20:41;7.05;;;2.58;;
81799;SDS011;71195;52.528;5.704;2023-07-28T06:23:11;6.45;;;3.42;;
81799;SDS011;71195;52.528;5.704;2023-07-28T06:25:40;11.70;;;3.55;;
81799;SDS011;71195;52.528;5.704;2023-07-28T06:28:12;7.60;;;3.20;;
81799;SDS011;71195;52.528;5.704;2023-07-28T06:30:41;8.38;;;3.88;;
81799;SDS011;71195;52.528;5.704;2023-07-28T06:33:13;12.75;;;3.53;;
81799;SDS011;71195;52.528;5.704;2023-07-28T06:35:42;12.32;;;3.75;;
81799;SDS011;71195;52.528;5.704;2023-07-28T06:38:11;15.50;;;4.40;;
81799;SDS011;71195;52.528;5.704;2023-07-28T06:40:41;13.40;;;4.82;;
81799;SDS011;71195;52.528;5.704;2023-07-28T06:43:10;12.43;;;3.80;;
81799;SDS011;71195;52.528;5.704;2023-07-28T06:45:39;14.70;;;3.78;;
81799;SDS011;71195;52.528;5.704;2023-07-28T06:48:08;8.95;;;4.05;;
81799;SDS011;71195;52.528;5.704;2023-07-28T06:50:40;11.10;;;3.85;;
81799;SDS011;71195;52.528;5.704;2023-07-28T06:53:10;13.43;;;5.10;;
81799;SDS011;71195;52.528;5.704;2023-07-28T06:55:39;10.98;;;5.47;;
81799;SDS011;71195;52.528;5.704;2023-07-28T06:58:08;8.45;;;4.10;;
81799;SDS011;71195;52.528;5.704;2023-07-28T07:00:38;8.10;;;3.83;;
81799;SDS011;71195;52.528;5.704;2023-07-28T07:03:07;7.57;;;4.07;;
81799;SDS011;71195;52.528;5.704;2023-07-28T07:05:37;12.88;;;4.10;;
81799;SDS011;71195;52.528;5.704;2023-07-28T07:08:09;14.27;;;4.47;;
81799;SDS011;71195;52.528;5.704;2023-07-28T07:10:39;9.50;;;3.38;;
81799;SDS011;71195;52.528;5.704;2023-07-28T07:13:08;9.57;;;3.78;;
81799;SDS011;71195;52.528;5.704;2023-07-28T07:15:37;7.90;;;3.25;;
81799;SDS011;71195;52.528;5.704;2023-07-28T07:18:07;7.88;;;3.00;;
81799;SDS011;71195;52.528;5.704;2023-07-28T07:20:37;9.25;;;3.45;;
81799;SDS011;71195;52.528;5.704;2023-07-28T07:23:09;8.10;;;2.88;;
81799;SDS011;71195;52.528;5.704;2023-07-28T07:25:39;10.70;;;2.80;;
81799;SDS011;71195;52.528;5.704;2023-07-28T07:28:08;8.65;;;3.17;;
81799;SDS011;71195;52.528;5.704;2023-07-28T07:30:37;7.68;;;3.08;;
81799;SDS011;71195;52.528;5.704;2023-07-28T07:33:06;9.95;;;4.20;;
81799;SDS011;71195;52.528;5.704;2023-07-28T07:35:36;7.80;;;3.42;;
81799;SDS011;71195;52.528;5.704;2023-07-28T07:38:05;12.77;;;3.80;;
81799;SDS011;71195;52.528;5.704;2023-07-28T07:40:37;8.23;;;3.50;;
81799;SDS011;71195;52.528;5.704;2023-07-28T07:43:06;9.05;;;3.40;;
81799;SDS011;71195;52.528;5.704;2023-07-28T07:45:36;13.98;;;3.80;;
81799;SDS011;71195;52.528;5.704;2023-07-28T07:48:05;8.13;;;3.30;;
81799;SDS011;71195;52.528;5.704;2023-07-28T07:50:34;9.75;;;3.65;;
81799;SDS011;71195;52.528;5.704;2023-07-28T07:53:04;11.32;;;3.78;;
81799;SDS011;71195;52.528;5.704;2023-07-28T07:55:35;11.27;;;3.75;;
81799;SDS011;71195;52.528;5.704;2023-07-28T07:58:04;13.43;;;3.90;;
81799;SDS011;71195;52.528;5.704;2023-07-28T08:00:34;10.38;;;4.35;;
81799;SDS011;71195;52.528;5.704;2023-07-28T08:03:04;7.95;;;3.70;;
81799;SDS011;71195;52.528;5.704;2023-07-28T08:05:33;11.85;;;4.07;;
81799;SDS011;71195;52.528;5.704;2023-07-28T08:08:03;10.40;;;3.70;;
81799;SDS011;71195;52.528;5.704;2023-07-28T08:10:36;7.03;;;3.17;;
81799;SDS011;71195;52.528;5.704;2023-07-28T08:13:07;9.20;;;4.13;;
81799;SDS011;71195;52.528;5.704;2023-07-28T08:15:36;13.48;;;4.07;;
81799;SDS011;71195;52.528;5.704;2023-07-28T08:18:05;12.68;;;4.35;;
81799;SDS011;71195;52.528;5.704;2023-07-28T08:20:34;10.48;;;3.95;;
81799;SDS011;71195;52.528;5.704;2023-07-28T08:23:03;9.50;;;4.10;;
81799;SDS011;71195;52.528;5.704;2023-07-28T08:25:36;9.63;;;3.55;;
81799;SDS011;71195;52.528;5.704;2023-07-28T08:28:05;7.80;;;3.38;;
81799;SDS011;71195;52.528;5.704;2023-07-28T08:30:34;7.47;;;3.28;;
81799;SDS011;71195;52.528;5.704;2023-07-28T08:33:04;6.10;;;3.70;;
81799;SDS011;71195;52.528;5.704;2023-07-28T08:35:33;8.02;;;3.45;;
81799;SDS011;71195;52.528;5.704;2023-07-28T08:38:03;9.80;;;3.17;;
81799;SDS011;71195;52.528;5.704;2023-07-28T08:40:37;9.68;;;3.63;;
81799;SDS011;71195;52.528;5.704;2023-07-28T08:43:07;9.05;;;3.40;;
81799;SDS011;71195;52.528;5.704;2023-07-28T08:45:36;10.23;;;4.10;;
81799;SDS011;71195;52.528;5.704;2023-07-28T08:48:06;9.40;;;3.75;;
81799;SDS011;71195;52.528;5.704;2023-07-28T08:50:35;9.32;;;3.50;;
81799;SDS011;71195;52.528;5.704;2023-07-28T08:53:05;7.80;;;3.67;;
81799;SDS011;71195;52.528;5.704;2023-07-28T08:55:34;8.48;;;3.25;;
81799;SDS011;71195;52.528;5.704;2023-07-28T08:58:19;8.65;;;3.28;;
81799;SDS011;71195;52.528;5.704;2023-07-28T09:00:50;8.27;;;3.30;;
81799;SDS011;71195;52.528;5.704;2023-07-28T09:03:29;7.53;;;3.60;;
81799;SDS011;71195;52.528;5.704;2023-07-28T09:05:59;7.55;;;3.65;;
81799;SDS011;71195;52.528;5.704;2023-07-28T09:08:30;10.15;;;3.72;;
81799;SDS011;71195;52.528;5.704;2023-07-28T09:11:01;9.65;;;3.83;;
81799;SDS011;71195;52.528;5.704;2023-07-28T09:13:39;12.30;;;4.25;;
81799;SDS011;71195;52.528;5.704;2023-07-28T09:16:16;10.77;;;3.83;;
81799;SDS011;71195;52.528;5.704;2023-07-28T09:18:46;11.15;;;3.75;;
81799;SDS011;71195;52.528;5.704;2023-07-28T09:21:16;8.77;;;3.60;;
81799;SDS011;71195;52.528;5.704;2023-07-28T09:23:46;12.63;;;3.65;;
81799;SDS011;71195;52.528;5.704;2023-07-28T09:26:16;9.80;;;3.47;;
81799;SDS011;71195;52.528;5.704;2023-07-28T09:28:48;5.93;;;2.95;;
81799;SDS011;71195;52.528;5.704;2023-07-28T09:33:56;8.93;;;3.28;;
81799;SDS011;71195;52.528;5.704;2023-07-28T09:36:26;12.57;;;3.72;;
81799;SDS011;71195;52.528;5.704;2023-07-28T09:38:55;7.95;;;3.10;;
81799;SDS011;71195;52.528;5.704;2023-07-28T09:41:26;8.13;;;3.03;;
81799;SDS011;71195;52.528;5.704;2023-07-28T09:44:01;6.47;;;2.97;;
81799;SDS011;71195;52.528;5.704;2023-07-28T09:46:30;7.85;;;3.53;;
81799;SDS011;71195;52.528;5.704;2023-07-28T09:49:04;7.32;;;3.17;;
81799;SDS011;71195;52.528;5.704;2023-07-28T09:51:34;5.95;;;3.15;;
81799;SDS011;71195;52.528;5.704;2023-07-28T09:56:39;5.93;;;2.95;;
81799;SDS011;71195;52.528;5.704;2023-07-28T09:59:13;7.28;;;2.88;;
81799;SDS011;71195;52.528;5.704;2023-07-28T10:01:45;7.10;;;3.25;;
81799;SDS011;71195;52.528;5.704;2023-07-28T10:04:16;6.88;;;2.80;;
81799;SDS011;71195;52.528;5.704;2023-07-28T10:06:45;8.63;;;2.72;;
81799;SDS011;71195;52.528;5.704;2023-07-28T10:09:14;6.07;;;2.50;;
81799;SDS011;71195;52.528;5.704;2023-07-28T10:11:44;4.88;;;2.05;;
81799;SDS011;71195;52.528;5.704;2023-07-28T10:14:18;7.32;;;2.58;;
81799;SDS011;71195;52.528;5.704;2023-07-28T10:16:55;5.88;;;2.50;;
81799;SDS011;71195;52.528;5.704;2023-07-28T10:19:25;3.92;;;2.50;;
81799;SDS011;71195;52.528;5.704;2023-07-28T10:22:01;4.65;;;2.20;;
81799;SDS011;71195;52.528;5.704;2023-07-28T10:27:30;7.88;;;2.28;;
81799;SDS011;71195;52.528;5.704;2023-07-28T10:30:03;5.82;;;2.17;;
81799;SDS011;71195;52.528;5.704;2023-07-28T10:32:38;6.22;;;2.00;;
81799;SDS011;71195;52.528;5.704;2023-07-28T10:35:09;5.10;;;2.38;;
81799;SDS011;71195;52.528;5.704;2023-07-28T10:37:50;5.10;;;1.88;;
81799;SDS011;71195;52.528;5.704;2023-07-28T10:40:28;5.45;;;1.55;;
81799;SDS011;71195;52.528;5.704;2023-07-28T10:42:59;7.55;;;2.40;;
81799;SDS011;71195;52.528;5.704;2023-07-28T10:45:32;6.95;;;2.17;;
81799;SDS011;71195;52.528;5.704;2023-07-28T10:48:02;2.88;;;1.80;;
81799;SDS011;71195;52.528;5.704;2023-07-28T10:50:31;3.50;;;1.52;;
81799;SDS011;71195;52.528;5.704;2023-07-28T10:53:01;4.88;;;1.58;;
81799;SDS011;71195;52.528;5.704;2023-07-28T10:55:30;4.25;;;1.65;;
81799;SDS011;71195;52.528;5.704;2023-07-28T10:58:00;3.88;;;1.15;;
81799;SDS011;71195;52.528;5.704;2023-07-28T11:00:32;4.05;;;1.75;;
81799;SDS011;71195;52.528;5.704;2023-07-28T11:05:31;4.32;;;1.63;;
81799;SDS011;71195;52.528;5.704;2023-07-28T11:08:01;6.55;;;1.77;;
81799;SDS011;71195;52.528;5.704;2023-07-28T11:10:31;5.03;;;1.02;;
81799;SDS011;71195;52.528;5.704;2023-07-28T11:13:01;4.10;;;1.42;;
81799;SDS011;71195;52.528;5.704;2023-07-28T11:15:34;4.00;;;1.27;;
81799;SDS011;71195;52.528;5.704;2023-07-28T11:18:04;3.55;;;1.40;;
81799;SDS011;71195;52.528;5.704;2023-07-28T11:20:35;4.32;;;1.73;;
81799;SDS011;71195;52.528;5.704;2023-07-28T11:23:04;4.47;;;1.63;;
81799;SDS011;71195;52.528;5.704;2023-07-28T11:25:34;4.93;;;1.52;;
81799;SDS011;71195;52.528;5.704;2023-07-28T11:28:04;2.65;;;1.40;;
81799;SDS011;71195;52.528;5.704;2023-07-28T11:30:38;4.13;;;1.55;;
81799;SDS011;71195;52.528;5.704;2023-07-28T11:33:09;5.45;;;1.83;;
81799;SDS011;71195;52.528;5.704;2023-07-28T11:35:43;5.18;;;1.92;;
81799;SDS011;71195;52.528;5.704;2023-07-28T11:38:13;3.55;;;1.70;;
81799;SDS011;71195;52.528;5.704;2023-07-28T11:40:43;5.45;;;1.80;;
81799;SDS011;71195;52.528;5.704;2023-07-28T11:43:13;5.10;;;2.28;;
81799;SDS011;71195;52.528;5.704;2023-07-28T11:45:45;7.57;;;1.38;;
81799;SDS011;71195;52.528;5.704;2023-07-28T11:50:43;3.35;;;1.65;;
81799;SDS011;71195;52.528;5.704;2023-07-28T11:53:14;5.72;;;1.90;;
81799;SDS011;71195;52.528;5.704;2023-07-28T11:55:43;5.40;;;1.73;;
81799;SDS011;71195;52.528;5.704;2023-07-28T11:58:13;2.97;;;1.63;;
81799;SDS011;71195;52.528;5.704;2023-07-28T12:00:44;3.65;;;1.48;;
81799;SDS011;71195;52.528;5.704;2023-07-28T12:05:58;7.00;;;1.52;;
81799;SDS011;71195;52.528;5.704;2023-07-28T12:08:35;8.75;;;2.50;;
81799;SDS011;71195;52.528;5.704;2023-07-28T12:11:05;5.55;;;1.70;;
81799;SDS011;71195;52.528;5.704;2023-07-28T12:13:48;3.60;;;1.38;;
81799;SDS011;71195;52.528;5.704;2023-07-28T12:16:38;2.63;;;1.50;;
81799;SDS011;71195;52.528;5.704;2023-07-28T12:19:09;3.25;;;1.48;;
81799;SDS011;71195;52.528;5.704;2023-07-28T12:21:38;3.53;;;1.55;;
81799;SDS011;71195;52.528;5.704;2023-07-28T12:24:08;3.38;;;1.55;;
81799;SDS011;71195;52.528;5.704;2023-07-28T12:26:37;3.13;;;1.38;;
81799;SDS011;71195;52.528;5.704;2023-07-28T12:29:06;3.22;;;1.10;;
81799;SDS011;71195;52.528;5.704;2023-07-28T12:31:38;3.83;;;1.30;;
81799;SDS011;71195;52.528;5.704;2023-07-28T12:36:36;4.55;;;1.42;;
81799;SDS011;71195;52.528;5.704;2023-07-28T12:39:06;7.97;;;1.67;;
81799;SDS011;71195;52.528;5.704;2023-07-28T12:41:36;4.43;;;1.90;;
81799;SDS011;71195;52.528;5.704;2023-07-28T12:44:05;3.17;;;1.42;;
81799;SDS011;71195;52.528;5.704;2023-07-28T12:46:34;3.85;;;1.40;;
81799;SDS011;71195;52.528;5.704;2023-07-28T12:49:06;5.10;;;1.23;;
81799;SDS011;71195;52.528;5.704;2023-07-28T12:51:35;2.78;;;1.15;;
81799;SDS011;71195;52.528;5.704;2023-07-28T12:54:04;2.40;;;1.10;;
81799;SDS011;71195;52.528;5.704;2023-07-28T12:56:33;2.35;;;1.05;;
81799;SDS011;71195;52.528;5.704;2023-07-28T12:59:03;3.17;;;1.23;;
81799;SDS011;71195;52.528;5.704;2023-07-28T13:01:32;3.90;;;0.80;;
81799;SDS011;71195;52.528;5.704;2023-07-28T13:04:01;3.92;;;0.70;;
81799;SDS011;71195;52.528;5.704;2023-07-28T13:06:33;1.88;;;1.00;;
81799;SDS011;71195;52.528;5.704;2023-07-28T13:09:02;5.38;;;1.48;;
81799;SDS011;71195;52.528;5.704;2023-07-28T13:11:32;4.15;;;1.13;;
81799;SDS011;71195;52.528;5.704;2023-07-28T13:14:01;2.75;;;1.25;;
81799;SDS011;71195;52.528;5.704;2023-07-28T13:16:30;4.03;;;1.40;;
81799;SDS011;71195;52.528;5.704;2023-07-28T13:19:00;3.47;;;1.27;;
81799;SDS011;71195;52.528;5.704;2023-07-28T13:21:29;3.42;;;1.40;;
81799;SDS011;71195;52.528;5.704;2023-07-28T13:24:01;5.45;;;1.65;;
81799;SDS011;71195;52.528;5.704;2023-07-28T13:26:30;4.10;;;1.05;;
81799;SDS011;71195;52.528;5.704;2023-07-28T13:29:00;2.80;;;0.82;;
81799;SDS011;71195;52.528;5.704;2023-07-28T13:31:32;3.45;;;1.00;;
81799;SDS011;71195;52.528;5.704;2023-07-28T13:34:02;5.47;;;0.93;;
81799;SDS011;71195;52.528;5.704;2023-07-28T13:36:31;8.45;;;1.33;;
81799;SDS011;71195;52.528;5.704;2023-07-28T13:39:04;1.77;;;0.80;;
81799;SDS011;71195;52.528;5.704;2023-07-28T13:41:34;1.80;;;0.73;;
81799;SDS011;71195;52.528;5.704;2023-07-28T13:44:03;2.50;;;0.80;;
81799;SDS011;71195;52.528;5.704;2023-07-28T13:46:32;2.08;;;0.50;;
81799;SDS011;71195;52.528;5.704;2023-07-28T13:49:02;2.58;;;0.75;;
81799;SDS011;71195;52.528;5.704;2023-07-28T13:51:31;2.95;;;1.02;;
81799;SDS011;71195;52.528;5.704;2023-07-28T13:54:00;3.05;;;0.77;;
81799;SDS011;71195;52.528;5.704;2023-07-28T13:56:32;2.65;;;0.77;;
81799;SDS011;71195;52.528;5.704;2023-07-28T13:59:01;1.63;;;0.70;;
81799;SDS011;71195;52.528;5.704;2023-07-28T14:01:30;3.63;;;0.90;;
81799;SDS011;71195;52.528;5.704;2023-07-28T14:04:00;2.65;;;0.85;;
81799;SDS011;71195;52.528;5.704;2023-07-28T14:06:29;2.28;;;0.77;;
81799;SDS011;71195;52.528;5.704;2023-07-28T14:08:58;3.10;;;0.70;;
81799;SDS011;71195;52.528;5.704;2023-07-28T14:11:30;1.83;;;0.70;;
81799;SDS011;71195;52.528;5.704;2023-07-28T14:14:00;3.13;;;1.05;;
81799;SDS011;71195;52.528;5.704;2023-07-28T14:16:29;3.65;;;0.75;;
81799;SDS011;71195;52.528;5.704;2023-07-28T14:18:58;2.00;;;0.98;;
81799;SDS011;71195;52.528;5.704;2023-07-28T14:21:28;3.25;;;1.20;;
81799;SDS011;71195;52.528;5.704;2023-07-28T14:23:57;4.18;;;1.13;;
81799;SDS011;71195;52.528;5.704;2023-07-28T14:26:27;2.45;;;0.80;;
81799;SDS011;71195;52.528;5.704;2023-07-28T14:28:59;3.38;;;0.95;;
81799;SDS011;71195;52.528;5.704;2023-07-28T14:31:28;3.35;;;0.77;;
81799;SDS011;71195;52.528;5.704;2023-07-28T14:33:57;4.45;;;0.68;;
81799;SDS011;71195;52.528;5.704;2023-07-28T14:36:26;2.85;;;1.00;;
81799;SDS011;71195;52.528;5.704;2023-07-28T14:38:56;1.95;;;1.00;;
81799;SDS011;71195;52.528;5.704;2023-07-28T14:41:25;1.48;;;0.65;;
81799;SDS011;71195;52.528;5.704;2023-07-28T14:43:54;1.65;;;0.70;;
81799;SDS011;71195;52.528;5.704;2023-07-28T14:46:26;1.52;;;0.75;;
81799;SDS011;71195;52.528;5.704;2023-07-28T14:48:55;2.25;;;0.45;;
81799;SDS011;71195;52.528;5.704;2023-07-28T14:51:24;3.78;;;0.75;;
81799;SDS011;71195;52.528;5.704;2023-07-28T14:53:53;1.92;;;0.77;;
81799;SDS011;71195;52.528;5.704;2023-07-28T14:56:24;1.85;;;1.10;;
81799;SDS011;71195;52.528;5.704;2023-07-28T14:58:53;3.22;;;0.75;;
81799;SDS011;71195;52.528;5.704;2023-07-28T15:01:26;4.45;;;0.93;;
81799;SDS011;71195;52.528;5.704;2023-07-28T15:03:55;3.50;;;1.17;;
81799;SDS011;71195;52.528;5.704;2023-07-28T15:06:27;2.22;;;0.73;;
81799;SDS011;71195;52.528;5.704;2023-07-28T15:08:56;3.38;;;0.85;;
81799;SDS011;71195;52.528;5.704;2023-07-28T15:11:26;3.90;;;1.20;;
81799;SDS011;71195;52.528;5.704;2023-07-28T15:13:55;3.33;;;0.85;;
81799;SDS011;71195;52.528;5.704;2023-07-28T15:16:27;3.95;;;1.52;;
81799;SDS011;71195;52.528;5.704;2023-07-28T15:18:56;5.28;;;1.63;;
81799;SDS011;71195;52.528;5.704;2023-07-28T15:21:25;1.98;;;1.00;;
81799;SDS011;71195;52.528;5.704;2023-07-28T15:23:55;2.22;;;0.82;;